Portada
METAR-TAF:

METAR-TAF

Aeropuertos :

Agen, Francia

latitud: 44-11N, longitud: 000-36E, altitud: 61 m

Observación

El informe se hizo hace 41 minutos, a las 17:30 UTC
Viento 7 kt del este-sureste
Temperatura 19°C
Humedad 73%
Presión 1021 hPa
Visibilidad 10 km o más
sin nubes por debajo de 1500 m y sin presencia de cumulonimbus.

METAR: LFBA 191730Z AUTO 12007KT CAVOK 19/14 Q1021 NOSIG

Hora: 20:11 (18:11 UTC)

Pronóstico

El informe se hizo hace 4 horas y 11 minutos, a las 14:00 UTC
Pronóstico válido del 19 a las 15 UTC al 19 a las 24 UTC
Viento 10 kt del este-sureste
Visibilidad 10 km o más
sin nubes por debajo de 1500 m y sin presencia de cumulonimbus.
Probabilidad 40% :
Temporalmente
del 19 a las 21 UTC al 19 a las 24 UTC
Visibilidad: 4000 m
Cielo nuboso a una altura de 1200 ft
neblina

TAF: LFBA 191400Z 1915/1924 12010KT CAVOK PROB40 TEMPO 1921/1924 4000 BR BKN012

Observaciones y pronósticos meteorológicos de más de 4000 aeropuertos (mensajes METAR y TAF).

Los puntos amarillos y rojos representan las estaciones disponibles.

Ponga el ratón en el punto deseado para ver el nombre de la estación.

Haga clic para ver las observaciones y los pronósticos meteorológicos.

Para cambiar el mapa : haga clic en los botones verdes con una cruz de color negro para hacer un zoom, en el botón verde con un guión para alejar o en las flechas verdes para mapas adyacentes.


METAR-TAF: